Flight Track Log - Related Links

Times and Time Zones

All times are in EDT time to prevent confusion due to time zone crossing. See the UAL1170 flight status page for this flight to view local times or setup timezone preferences in your user account.

Time Position Orientation Groundspeed Altitude Reporting Facility
EDT Latitude Longitude Course Direction KTS MPH feet Rate Location/Type
Sat 09:46:15 AM 33.9448 -118.3677 248° West  Level FlightAware Approximate
Sat 09:47:15 AM 33.9333 -118.5285 145° Southeast  Level FlightAware Approximate
Sat 09:48:32 AM 33.9000 -118.5000 199° South 242 278 4,000  Level Southern California TRACON
Sat 09:49:42 AM 33.8197 -118.5339 176° South 280 322 7,400 2,954 Climbing Los Angeles Center
Sat 09:50:42 AM 33.7342 -118.5267 138° Southeast 286 329 10,400 3,100 Climbing Los Angeles Center
Sat 09:51:42 AM 33.6708 -118.4575 107° East 284 327 13,600 2,550 Climbing Los Angeles Center
Sat 09:52:42 AM 33.6417 -118.3444 90° East 287 330 15,500 2,100 Climbing Los Angeles Center
Sat 09:53:42 AM 33.6419 -118.2122 90° East 333 383 17,800 2,500 Climbing Los Angeles Center
Sat 09:54:42 AM 33.6419 -118.0747 89° East 373 429 20,500 2,450 Climbing Los Angeles Center
Sat 09:55:42 AM 33.6442 -117.9303 91° East 406 467 22,700 1,950 Climbing Los Angeles Center
Sat 09:56:42 AM 33.6422 -117.7781 89° East 418 481 24,400 2,050 Climbing Los Angeles Center
Sat 09:57:42 AM 33.6442 -117.6308 90° East 439 505 26,800 2,050 Climbing Los Angeles Center
Sat 09:58:42 AM 33.6439 -117.4761 90° East 454 522 28,500 1,650 Climbing Los Angeles Center
Sat 09:59:42 AM 33.6436 -117.3139 91° East 467 537 30,100 1,500 Climbing Los Angeles Center
Sat 10:00:42 AM 33.6408 -117.1392 81° East 478 550 31,500 1,550 Climbing Los Angeles Center
Sat 10:01:42 AM 33.6611 -116.9772 75° East 478 550 33,200 1,600 Climbing Los Angeles Center
Sat 10:02:42 AM 33.6953 -116.8203 77° East 478 550 34,700 1,400 Climbing Los Angeles Center
Sat 10:03:42 AM 33.7253 -116.6658 66° East 483 556 36,000 1,300 Climbing Los Angeles Center
Sat 10:04:42 AM 33.7803 -116.5186 65° Northeast 477 549 37,300 1,200 Climbing Los Angeles Center
Sat 10:05:42 AM 33.8350 -116.3789 65° Northeast 470 541 38,400 850 Climbing Los Angeles Center
Sat 10:06:42 AM 33.8894 -116.2389 65° Northeast 459 528 39,000 250 Climbing Los Angeles Center
Sat 10:07:42 AM 33.9436 -116.0986 64° Northeast 459 528 38,900  Descending Los Angeles Center
Sat 10:08:42 AM 34.0000 -115.9583 66° East 459 528 39,000 50 Climbing Los Angeles Center
Sat 10:09:42 AM 34.0539 -115.8128 65° Northeast 459 528 39,000  Level Los Angeles Center
Sat 10:10:42 AM 34.1097 -115.6672 65° Northeast 464 534 39,000  Level Los Angeles Center
Sat 10:11:42 AM 34.1656 -115.5236 64° Northeast 464 534 39,000  Level Los Angeles Center
Sat 10:12:42 AM 34.2233 -115.3775 67° East 464 534 39,000  Level Los Angeles Center
Sat 10:13:42 AM 34.2764 -115.2289 64° Northeast 464 534 39,000  Level Los Angeles Center
Sat 10:14:42 AM 34.3339 -115.0847 66° East 469 540 39,000 -50 Level Los Angeles Center
Sat 10:15:42 AM 34.3867 -114.9381 66° East 469 540 38,900  Descending Los Angeles Center
Sat 10:16:42 AM 34.4417 -114.7914 65° Northeast 469 540 39,000 50 Climbing Los Angeles Center
Sat 10:17:42 AM 34.4964 -114.6492 66° East 462 532 39,000  Level Los Angeles Center
Sat 10:19:49 AM 34.6058 -114.3536 66° East 476 548 39,000  Level Albuquerque Center
Sat 10:20:49 AM 34.6603 -114.2067 65° Northeast 476 548 39,000  Level Albuquerque Center
Sat 10:21:49 AM 34.7167 -114.0572 67° East 476 548 39,000  Level Albuquerque Center
Sat 10:22:49 AM 34.7689 -113.9072 65° Northeast 476 548 39,000  Level Albuquerque Center
Sat 10:23:49 AM 34.8250 -113.7575 66° East 476 548 39,000  Level Albuquerque Center
Sat 10:24:49 AM 34.8789 -113.6072 66° East 481 554 39,000  Level Albuquerque Center
Sat 10:26:06 AM 34.9528 -113.3994 67° East 467 537 39,000  Level Los Angeles Center
Sat 10:27:06 AM 35.0056 -113.2456 67° East 472 543 39,000  Level Los Angeles Center
Sat 10:28:06 AM 35.0603 -113.0914 67° East 483 556 39,000  Level Los Angeles Center
Sat 10:29:06 AM 35.1147 -112.9369 66° East 483 556 39,000  Level Los Angeles Center
Sat 10:30:01 AM 35.1669 -112.7936 67° East 500 575 39,000  Level Albuquerque Center
Sat 10:31:01 AM 35.2219 -112.6372 67° East 506 582 39,000  Level Albuquerque Center
Sat 10:32:01 AM 35.2767 -112.4803 66° East 506 582 39,000  Level Albuquerque Center
Sat 10:33:01 AM 35.3333 -112.3236 68° East 506 582 39,000  Level Albuquerque Center
Sat 10:34:01 AM 35.3858 -112.1636 66° East 506 582 39,000  Level Albuquerque Center
Sat 10:35:01 AM 35.4444 -112.0014 67° East 506 582 39,000  Level Albuquerque Center
Sat 10:36:01 AM 35.4983 -111.8439 67° East 506 582 39,000  Level Albuquerque Center
Sat 10:37:01 AM 35.5522 -111.6861 68° East 506 582 39,000  Level Albuquerque Center
Sat 10:38:01 AM 35.6036 -111.5281 67° East 506 582 39,000  Level Albuquerque Center
Sat 10:39:38 AM 35.6839 -111.2906 68° East 499 574 39,000  Level Denver Center
Sat 10:40:40 AM 35.7372 -111.1300 68° East 500 575 39,000  Level Denver Center
Sat 10:41:42 AM 35.7897 -110.9700 68° East 499 574 39,000  Level Denver Center
Sat 10:42:44 AM 35.8433 -110.8097 68° East 499 574 39,000  Level Denver Center
Sat 10:43:47 AM 35.9064 -110.6178 68° East 498 573 39,000  Level Denver Center
Sat 10:44:49 AM 35.9581 -110.4586 68° East 495 570 39,000  Level Denver Center
Sat 10:45:51 AM 36.0094 -110.3006 68° East 492 566 39,000  Level Denver Center
Sat 10:46:53 AM 36.0622 -110.1414 69° East 493 567 39,000  Level Denver Center
Sat 10:47:55 AM 36.1108 -109.9858 68° East 493 567 39,000  Level Denver Center
Sat 10:48:57 AM 36.1667 -109.8100 68° East 491 565 39,000  Level Denver Center
Sat 10:50:00 AM 36.2161 -109.6592 69° East 492 566 39,000  Level Denver Center
Sat 10:51:02 AM 36.2728 -109.4800 69° East 496 571 39,000  Level Denver Center
Sat 10:52:04 AM 36.3211 -109.3261 68° East 497 572 39,000  Level Denver Center
Sat 10:53:06 AM 36.3706 -109.1717 69° East 498 573 39,000  Level Denver Center
Sat 10:54:09 AM 36.4267 -108.9900 69° East 500 575 39,000  Level Denver Center
Sat 10:55:11 AM 36.4742 -108.8344 69° East 500 575 39,000  Level Denver Center
Sat 10:56:13 AM 36.5294 -108.6539 69° East 498 573 39,000  Level Denver Center
Sat 10:57:15 AM 36.5769 -108.4989 69° East 498 573 39,000  Level Denver Center
Sat 10:58:18 AM 36.6311 -108.3200 69° East 495 570 39,000  Level Denver Center
Sat 10:59:20 AM 36.6781 -108.1661 69° East 495 570 39,000  Level Denver Center
Sat 11:00:22 AM 36.7322 -107.9861 70° East 496 571 39,000  Level Denver Center
Sat 11:01:25 AM 36.7783 -107.8300 70° East 499 574 39,000  Level Denver Center
Sat 11:02:27 AM 36.8322 -107.6475 70° East 501 577 39,000  Level Denver Center
Sat 11:03:30 AM 36.8789 -107.4911 70° East 502 578 39,000  Level Denver Center
Sat 11:04:32 AM 36.9325 -107.3064 70° East 505 581 39,000  Level Denver Center
Sat 11:05:34 AM 36.9789 -107.1481 70° East 506 582 39,000  Level Denver Center
Sat 11:06:37 AM 37.0331 -106.9628 71° East 508 585 39,000  Level Denver Center
Sat 11:07:39 AM 37.0781 -106.8031 70° East 508 585 39,000  Level Denver Center
Sat 11:08:42 AM 37.1325 -106.6181 70° East 508 585 39,000  Level Denver Center
Sat 11:09:44 AM 37.1778 -106.4589 71° East 506 582 39,000  Level Denver Center
Sat 11:10:47 AM 37.2292 -106.2736 70° East 504 580 39,000  Level Denver Center
Sat 11:11:49 AM 37.2742 -106.1156 71° East 503 579 39,000  Level Denver Center
Sat 11:13:00 AM 37.3345 -105.8940 71° East 504 580 39,000  Level FlightAware ADS-B
Sat 11:13:31 AM 37.3573 -105.8120 71° East 506 582 39,000  Level FlightAware ADS-B
Sat 11:14:02 AM 37.3821 -105.7230 71° East 507 583 39,000  Level FlightAware ADS-B
Sat 11:14:46 AM 37.4161 -105.5990 71° East 508 585 39,000  Level FlightAware ADS-B
Sat 11:15:22 AM 37.4429 -105.5010 71° East 509 586 39,000  Level FlightAware ADS-B
Sat 11:15:54 AM 37.4675 -105.4110 71° East 509 586 39,000  Level FlightAware ADS-B
Sat 11:16:25 AM 37.4909 -105.3250 71° East 511 588 39,000  Level FlightAware ADS-B
Sat 11:16:56 AM 37.5147 -105.2360 71° East 513 590 39,000  Level FlightAware ADS-B
Sat 11:17:27 AM 37.5383 -105.1490 71° East 513 590 39,000  Level FlightAware ADS-B
Sat 11:17:58 AM 37.5620 -105.0610 71° East 511 588 39,000  Level FlightAware ADS-B
Sat 11:18:42 AM 37.5947 -104.9390 71° East 508 585 39,000  Level FlightAware ADS-B
Sat 11:19:13 AM 37.6177 -104.8530 72° East 506 582 39,000  Level FlightAware ADS-B
Sat 11:19:44 AM 37.6409 -104.7650 71° East 506 582 39,000  Level FlightAware ADS-B
Sat 11:20:15 AM 37.6643 -104.6770 72° East 507 583 39,000  Level FlightAware ADS-B
Sat 11:20:53 AM 37.6915 -104.5730 72° East 506 582 39,000  Level FlightAware ADS-B
Sat 11:21:44 AM 37.7289 -104.4310 72° East 504 580 39,000  Level FlightAware ADS-B
Sat 11:22:15 AM 37.7517 -104.3440 72° East 506 582 39,000  Level FlightAware ADS-B
Sat 11:22:45 AM 37.7738 -104.2590 72° East 504 580 39,000  Level FlightAware ADS-B
Sat 11:23:15 AM 37.7959 -104.1740 72° East 508 585 39,000  Level FlightAware ADS-B
Sat 11:23:46 AM 37.8181 -104.0890 72° East 508 585 39,000  Level FlightAware ADS-B
Sat 11:24:19 AM 37.8422 -103.9950 72° East 510 587 39,000  Level FlightAware ADS-B
Sat 11:24:49 AM 37.8642 -103.9090 72° East 511 588 39,000  Level FlightAware ADS-B
Sat 11:25:20 AM 37.8863 -103.8230 72° East 512 589 39,000  Level FlightAware ADS-B
Sat 11:25:50 AM 37.9084 -103.7370 72° East 514 592 39,000  Level FlightAware ADS-B
Sat 11:26:20 AM 37.9305 -103.6500 72° East 515 593 39,000  Level FlightAware ADS-B
Sat 11:26:51 AM 37.9529 -103.5610 72° East 515 593 39,000  Level FlightAware ADS-B
Sat 11:27:21 AM 37.9747 -103.4750 72° East 516 594 39,000  Level FlightAware ADS-B
Sat 11:27:52 AM 37.9967 -103.3870 72° East 516 594 39,000  Level FlightAware ADS-B
Sat 11:28:22 AM 38.0188 -103.2990 72° East 517 595 39,000  Level FlightAware ADS-B
Sat 11:28:53 AM 38.0407 -103.2110 72° East 517 595 39,000  Level FlightAware ADS-B
Sat 11:29:24 AM 38.0628 -103.1220 73° East 516 594 39,000  Level FlightAware ADS-B
Sat 11:29:54 AM 38.0846 -103.0340 73° East 513 590 39,000  Level FlightAware ADS-B
Sat 11:30:25 AM 38.1059 -102.9480 73° East 511 588 39,000  Level FlightAware ADS-B
Sat 11:30:55 AM 38.1274 -102.8610 73° East 510 587 39,000  Level FlightAware ADS-B
Sat 11:31:25 AM 38.1486 -102.7740 73° East 510 587 39,000  Level FlightAware ADS-B
Sat 11:31:56 AM 38.1699 -102.6870 73° East 509 586 39,000  Level FlightAware ADS-B
Sat 11:32:27 AM 38.1915 -102.5990 73° East 509 586 39,000  Level FlightAware ADS-B
Sat 11:32:57 AM 38.2125 -102.5130 73° East 508 585 39,000  Level FlightAware ADS-B
Sat 11:33:28 AM 38.2336 -102.4260 73° East 508 585 39,000  Level FlightAware ADS-B
Sat 11:33:58 AM 38.2542 -102.3400 73° East 509 586 39,000  Level FlightAware ADS-B
Sat 11:34:28 AM 38.2749 -102.2540 73° East 509 586 39,000  Level FlightAware ADS-B
Sat 11:34:58 AM 38.2958 -102.1670 73° East 509 586 39,000  Level FlightAware ADS-B
Sat 11:35:29 AM 38.3164 -102.0800 73° East 510 587 39,000  Level FlightAware ADS-B
Sat 11:35:59 AM 38.3369 -101.9930 73° East 511 588 39,000  Level FlightAware ADS-B
Sat 11:36:32 AM 38.3595 -101.8980 73° East 512 589 39,000  Level FlightAware ADS-B
Sat 11:37:04 AM 38.3809 -101.8070 73° East 512 589 39,000  Level FlightAware ADS-B
Sat 11:37:36 AM 38.4026 -101.7140 73° East 512 589 39,000  Level FlightAware ADS-B
Sat 11:38:07 AM 38.4234 -101.6260 74° East 513 590 39,000  Level FlightAware ADS-B
Sat 11:38:52 AM 38.4494 -101.5119 73° East 512 589 39,000  Level Denver Center
Sat 11:39:55 AM 38.4886 -101.3453 74° East 511 588 39,000  Level Denver Center
Sat 11:40:57 AM 38.5328 -101.1511 74° East 510 587 39,000  Level Denver Center
Sat 11:42:00 AM 38.5711 -100.9847 74° East 509 586 39,000  Level Denver Center
Sat 11:43:02 AM 38.6147 -100.7914 74° East 506 582 39,000  Level Denver Center
Sat 11:44:05 AM 38.6522 -100.6253 74° East 506 582 39,000  Level Denver Center
Sat 11:45:07 AM 38.6956 -100.4300 74° East 508 585 39,000  Level Denver Center
Sat 11:46:10 AM 38.7322 -100.2625 74° East 510 587 39,000  Level Denver Center
Sat 11:47:13 AM 38.7750 -100.0669 75° East 509 586 39,000  Level Denver Center
Sat 11:48:15 AM 38.8108 -99.8986 74° East 510 587 39,000  Level Denver Center
Sat 11:49:18 AM 38.8536 -99.7028 72° East 511 588 39,000  Level Denver Center
Sat 11:50:06 AM 38.8861 -99.5708 75° East 506 582 39,000  Level Kansas City Center
Sat 11:51:06 AM 38.9228 -99.3894 75° East 511 588 39,000  Level Kansas City Center
Sat 11:52:06 AM 38.9589 -99.2181 75° East 505 581 39,000  Level Kansas City Center
Sat 11:53:06 AM 38.9950 -99.0414 75° East 505 581 39,000  Level Kansas City Center
Sat 11:54:06 AM 39.0306 -98.8672 75° East 505 581 39,000  Level Kansas City Center
Sat 11:55:06 AM 39.0683 -98.6906 76° East 505 581 39,000  Level Kansas City Center
Sat 11:56:06 AM 39.1061 -98.4972 75° East 505 581 39,000  Level Kansas City Center
Sat 11:57:06 AM 39.1433 -98.3172 76° East 505 581 39,000  Level Kansas City Center
Sat 11:58:06 AM 39.1778 -98.1397 75° East 511 588 39,000  Level Kansas City Center
Sat 11:59:06 AM 39.2144 -97.9619 76° East 511 588 39,000  Level Kansas City Center
Sat 12:00:06 PM 39.2486 -97.7814 76° East 511 588 39,000  Level Kansas City Center
Sat 12:01:06 PM 39.2800 -97.6219 75° East 511 588 39,000  Level Kansas City Center
Sat 12:02:06 PM 39.3206 -97.4197 76° East 511 588 39,000  Level Kansas City Center
Sat 12:03:06 PM 39.3539 -97.2439 76° East 511 588 39,000  Level Kansas City Center
Sat 12:04:06 PM 39.3869 -97.0653 76° East 506 582 39,000  Level Kansas City Center
Sat 12:05:06 PM 39.4197 -96.8889 77° East 506 582 39,000  Level Kansas City Center
Sat 12:06:06 PM 39.4525 -96.7100 77° East 506 582 39,000  Level Kansas City Center
Sat 12:07:06 PM 39.4847 -96.5336 76° East 506 582 39,000  Level Kansas City Center
Sat 12:08:06 PM 39.5144 -96.3756 77° East 506 582 39,000  Level Kansas City Center
Sat 12:09:06 PM 39.5439 -96.2042 76° East 501 577 39,000  Level Kansas City Center
Sat 12:10:06 PM 39.5797 -96.0164 77° East 490 564 39,000  Level Kansas City Center
Sat 12:11:06 PM 39.6111 -95.8447 77° East 484 557 39,000  Level Kansas City Center
Sat 12:12:06 PM 39.6378 -95.6889 77° East 484 557 39,000  Level Kansas City Center
Sat 12:13:06 PM 39.6706 -95.5008 78° East 484 557 39,000  Level Kansas City Center
Sat 12:14:06 PM 39.6992 -95.3311 77° East 484 557 39,000  Level Kansas City Center
Sat 12:15:06 PM 39.7292 -95.1617 79° East 484 557 39,000  Level Kansas City Center
Sat 12:16:06 PM 39.7531 -95.0081 78° East 489 563 39,000  Level Kansas City Center
Sat 12:17:06 PM 39.7806 -94.8353 77° East 484 557 39,000  Level Kansas City Center
Sat 12:18:06 PM 39.8142 -94.6492 79° East 484 557 39,000  Level Kansas City Center
Sat 12:19:06 PM 39.8394 -94.4761 77° East 484 557 39,000  Level Kansas City Center
Sat 12:20:06 PM 39.8683 -94.3086 78° East 484 557 39,000  Level Kansas City Center
Sat 12:21:06 PM 39.8931 -94.1544 78° East 484 557 39,000  Level Kansas City Center
Sat 12:22:06 PM 39.9194 -93.9864 78° East 484 557 39,000  Level Kansas City Center
Sat 12:23:06 PM 39.9478 -93.8131 78° East 484 557 39,000  Level Kansas City Center
Sat 12:24:06 PM 39.9739 -93.6450 78° East 484 557 39,000  Level Kansas City Center
Sat 12:25:06 PM 40.0017 -93.4714 79° East 484 557 39,000  Level Kansas City Center
Sat 12:26:06 PM 40.0272 -93.3028 79° East 484 557 39,000  Level Kansas City Center
Sat 12:27:06 PM 40.0522 -93.1317 79° East 484 557 39,000  Level Kansas City Center
Sat 12:28:06 PM 40.0792 -92.9467 79° East 478 550 39,000  Level Kansas City Center
Sat 12:29:06 PM 40.1022 -92.7917 78° East 478 550 39,000  Level Kansas City Center
Sat 12:30:06 PM 40.1328 -92.6064 60° Northeast 478 550 39,000  Level Kansas City Center
Sat 12:31:06 PM 40.1969 -92.4581 58° Northeast 465 535 39,000  Level Kansas City Center
Sat 12:32:06 PM 40.2692 -92.3092 58° Northeast 465 535 39,000  Level Kansas City Center
Sat 12:33:06 PM 40.3394 -92.1628 58° Northeast 470 541 39,000  Level Kansas City Center
Sat 12:35:15 PM 40.4886 -91.8506 57° Northeast 486 559 39,000  Level Chicago Center
Sat 12:36:15 PM 40.5586 -91.7058 59° Northeast 486 559 39,000  Level Chicago Center
Sat 12:37:15 PM 40.6283 -91.5522 58° Northeast 486 559 39,000  Level Chicago Center
Sat 12:38:15 PM 40.6997 -91.4039 66° East 481 554 39,000  Level Chicago Center
Sat 12:39:15 PM 40.7525 -91.2467 75° East 475 547 39,000  Level Chicago Center
Sat 12:40:15 PM 40.7864 -91.0803 73° East 470 541 39,000  Level Chicago Center
Sat 12:41:15 PM 40.8244 -90.9111 77° East 470 541 39,000  Level Chicago Center
Sat 12:42:15 PM 40.8558 -90.7361 74° East 470 541 39,000  Level Chicago Center
Sat 12:43:15 PM 40.8911 -90.5694 75° East 470 541 39,000  Level Chicago Center
Sat 12:44:15 PM 40.9242 -90.3997 75° East 470 541 39,000  Level Chicago Center
Sat 12:45:15 PM 40.9544 -90.2489 75° East 470 541 39,000  Level Chicago Center
Sat 12:47:15 PM 41.0214 -89.9058 76° East 470 541 39,000  Level Chicago Center
Sat 12:48:16 PM 41.0533 -89.7325 76° East 470 541 39,000  Level Chicago Center
Sat 12:49:15 PM 41.0850 -89.5592 76° East 476 548 39,000  Level Chicago Center
Sat 12:50:15 PM 41.1164 -89.3858 76° East 476 548 39,000  Level Chicago Center
Sat 12:51:15 PM 41.1497 -89.2092 78° East 482 555 39,000  Level Chicago Center
Sat 12:52:15 PM 41.1806 -89.0217 76° East 477 549 39,000  Level Chicago Center
Sat 12:53:15 PM 41.2133 -88.8503 76° East 477 549 39,000  Level Chicago Center
Sat 12:54:15 PM 41.2458 -88.6733 77° East 477 549 39,000  Level Chicago Center
Sat 12:55:15 PM 41.2758 -88.4989 77° East 477 549 39,000  Level Chicago Center
Sat 12:56:15 PM 41.3058 -88.3244 77° East 477 549 39,000  Level Chicago Center
Sat 12:57:15 PM 41.3372 -88.1469 76° East 477 549 39,000  Level Chicago Center
Sat 12:58:15 PM 41.3667 -87.9858 78° East 489 563 39,000  Level Chicago Center
Sat 12:59:15 PM 41.3958 -87.8053 77° East 494 568 39,000  Level Chicago Center
Sat 01:00:15 PM 41.4267 -87.6275 77° East 489 563 39,000  Level Chicago Center
Sat 01:01:15 PM 41.4572 -87.4492 77° East 489 563 39,000  Level Chicago Center
Sat 01:02:15 PM 41.4875 -87.2708 78° East 489 563 39,000 -650 Level Chicago Center
Sat 01:03:15 PM 41.5153 -87.0897 77° East 489 563 37,700 -1,550 Descending Chicago Center
Sat 01:04:15 PM 41.5450 -86.9139 77° East 489 563 35,900 -1,350 Descending Chicago Center
Sat 01:05:15 PM 41.5764 -86.7350 79° East 489 563 35,000 -450 Descending Chicago Center
Sat 01:06:15 PM 41.6033 -86.5506 78° East 489 563 35,000  Level Chicago Center
Sat 01:07:15 PM 41.6322 -86.3717 79° East 489 563 35,000  Level Chicago Center
Sat 01:08:15 PM 41.6622 -86.1728 79° East 489 563 35,000  Level Chicago Center
Sat 01:09:15 PM 41.6903 -85.9850 79° East 494 568 35,000  Level Chicago Center
Sat 01:10:15 PM 41.7161 -85.8056 79° East 494 568 35,000 -50 Level Chicago Center
Sat 01:11:15 PM 41.7436 -85.6233 78° East 487 560 34,900 -500 Descending Chicago Center
Sat 01:12:15 PM 41.7711 -85.4461 82° East 487 560 34,000 -914 Descending Chicago Center
Sat 01:13:00 PM 41.7850 -85.3181 80° East 514 592 33,300 -571 Descending Cleveland Center
Sat 01:14:00 PM 41.8092 -85.1358 78° East 528 608 33,000 -150 Descending Cleveland Center
Sat 01:15:00 PM 41.8372 -84.9508 77° East 505 581 33,000  Level Cleveland Center
Sat 01:16:00 PM 41.8689 -84.7717 81° East 498 573 33,000  Level Cleveland Center
Sat 01:17:00 PM 41.8900 -84.5889 79° East 498 573 33,000 -50 Level Cleveland Center
Sat 01:18:00 PM 41.9169 -84.4064 79° East 503 579 32,900 -650 Descending Cleveland Center
Sat 01:19:00 PM 41.9442 -84.2097 80° East 497 572 31,700 -2,350 Descending Cleveland Center
Sat 01:20:00 PM 41.9686 -84.0269 80° East 497 572 28,200 -2,450 Descending Cleveland Center
Sat 01:21:00 PM 41.9928 -83.8408 79° East 502 578 26,800 -1,200 Descending Cleveland Center
Sat 01:22:00 PM 42.0189 -83.6522 80° East 508 585 25,800 -950 Descending Cleveland Center
Sat 01:23:00 PM 42.0400 -83.4853 92° East 508 585 24,900 -1,000 Descending Cleveland Center
Sat 01:24:00 PM 42.0342 -83.2978 98° East 498 573 23,800 -1,150 Descending Cleveland Center
Sat 01:25:00 PM 42.0136 -83.1011 98° East 493 567 22,600 -1,600 Descending Cleveland Center
Sat 01:26:00 PM 41.9944 -82.9244 98° East 481 554 20,600 -1,949 Descending Cleveland Center
Sat 01:26:57 PM 41.9786 -82.7703 96° East 458 527 18,800 -1,943 Descending Cleveland Center
Sat 01:27:45 PM 41.9667 -82.6303 107° East 446 513 17,200 -2,439 Descending Cleveland Center
Sat 01:29:00 PM 41.9239 -82.4447 113° Southeast 432 497 13,800 -2,678 Descending Cleveland Center
Sat 01:29:46 PM 41.8883 -82.3347 113° Southeast 413 475 11,800 -1,950 Descending Cleveland Center
Sat 01:31:00 PM 41.8383 -82.1744 142° Southeast 386 444 9,900 -893 Descending Cleveland Center
Sat 01:31:47 PM 41.7808 -82.1147 147° Southeast 335 386 10,000 53 Climbing Cleveland Center
Sat 01:32:54 PM 41.7025 -82.0461 146° Southeast 325 374 10,000 -94 Level Cleveland Center
Sat 01:33:55 PM 41.6222 -81.9747 146° Southeast 322 371 9,800 -522 Descending Cleveland Center
Sat 01:34:49 PM 41.5622 -81.9208 169° South 287 330 9,000 -1,304 Descending Cleveland Center
Sat 01:35:50 PM 41.4894 -81.9025 211° Southwest 283 326 7,300 -1,594 Descending Cleveland Center
Sat 01:36:57 PM 41.4181 -81.9592 229° Southwest 286 329 5,600 -1,370 Descending Cleveland Center
Sat 01:37:57 PM 41.3692 -82.0331 200° South 268 308 4,400 -898 Descending Cleveland Center
Sat 01:39:04 PM 41.3106 -82.0619 200° South 215 247 3,700 -627 Descending Cleveland Center

Login

Don't have an account? Register now (free) for customized features, flight alerts, and more!